Startpagina
METAR-TAF:

METAR-TAF

Vliegvelden :

Shanghai-Pudong, China

Luchthaven Shanghai Pudong

breedte: 31-07N, lengte: 121-46E, hoogte: 4 m

Actueel weer

Dit bericht is 32 minuten geleden gemaakt, om 06:00 UTC
Wind 10 kt uit het noorden, variërend tussen het noordwesten en het noordoosten
Temperatuur 12°C
Vochtigheid 54%
Druk 1026 hPa
Zicht 10 km of meer
geen wolken onder 1500 m en geen cumulonimbus

METAR: ZSPD 190600Z 36005MPS 320V050 CAVOK 12/03 Q1026 NOSIG

Tijdstip: 14:32 (06:32 UTC)

Verwachting

Dit bericht is 3 uur en het 13 minuten geleden gemaakt, om 03:19 UTC
Verwachting geldig van 19 om 06 UTC tot 20 om 06 UTC
Wind 8 kt uit het noordnoordoosten
Zicht: 6000 m
Verspreide wolken op 2000 ft

TAF: ZSPD 190319Z 1906/2006 02004MPS 6000 SCT020 TX12/1906Z TN07/1921Z

Waarnemingen en weersverwachtingen van meer dan 4000 vliegvelden (METAR en TAF).

De beschikbare stations zijn de gele en rode punten op de kaart.

Ga met uw muis naar het station om de naam te zien.

Klik dan om waarnemingen en weersverwachtingen te zien.

kaart wijzigen: klik op de groene knoppen met een zwart kruis om in te zoomen, op de groene knop met een streepje om uit te zoomen of op de groene pijlen voor aangrenzende kaarten.


METAR-TAF: